Hubert, Texas
Current Conditions -  °F | °C
As of 4:55 PM on Thursday 20 Nov 2014 (Local Time) from KRBO Reporting Station
Overcast Overcast  
Wind Chill: 72°   Ceiling: 3200
Heat Index: 72°   Visibility: 10mi
Dew Point: 65°   Wind: 15mph
Humidity: 80%   Direction: 150°SSE
Pressure: 30.02"   Gusts: 20mph
Location:  28.0654°N, 97.7489°W
Report Text: KRBO 202255Z AUTO 15013G17KT 10SM SCT027 BKN032 OVC048 22/19 A3002 RMK AO2 T02210186
Loading
Personal Weather Stations






























Interactive Weather Map New forecast layout! Learn more

10-Day Weather Forecast

Advertisements
Track Severe Weather on mobile